Terminal Aerodrome Forecast
Issued by NWS Duluth, MN

Home | Current Version | Previous Version | Text Only | Print | Product List | Glossary On
Versions: 1 2 3 4 5 6 7 8 9 10 11 12 13 14 15 16 17 18 19 20 21 22 23 24 25
000
FTUS43 KDLH 212329
TAFDLH
TAF
KDLH 212329Z 2200/2224 09011KT P6SM BKN110
     FM220300 10008KT P6SM -SHRA VCTS BKN060CB
     FM220600 VRB03KT 5SM BR BKN030
     FM221000 VRB03KT P6SM BKN090
     FM221500 28007KT P6SM SCT090=

USA.gov is the U.S. government's official web portal to all federal, state and local government web resources and services.